Monday, September 01, 2014
13:45 UTC
  |  Log In   |  Register Free
Airport Search:

Lewis University Airport
(KLOT)

Lewis University Airport Diagram
No Airport Diagram Available

FAA data valid effective July 24, 2014 until September 18, 2014 (unless otherwise noted).

 
 
 
 
 
 
 
 
 
 
 
 
 
 

Current Aviation Weather for Lewis University Airport (KLOT)

The most recent METAR observation for KLOT was updated at: 1255 UTC
METAR Summary (Translated METAR)
KLOT
011255Z AUTO 19009G15KT 7SM OVC009 23/22 A2976 RMK AO2 T02310221
KJOT
(6.4 nm SW from KLOT)
011255Z AUTO 19010G17KT 7SM BKN011 BKN015 BKN021 23/21 A2977 RMK AO2 T02320210
TAF Summary (Translated TAF)
KMDW
(18.8 nm NE from KLOT)
011120Z 0112/0212 20010KT P6SM VCSH SCT009 BKN014 FM011300 12008KT P6SM SCT010 BKN018 FM011500 17010KT P6SM VCSH SCT020 BKN050 FM011600 21013G20KT P6SM VCTS SCT020 BKN050CB TEMPO 0116/0119 VRB10G20KT 3SM SHRA SCT025 OVC035 FM011900 23015G22KT P6SM SCT030 BKN050 FM012300 24012KT P6SM SCT030 BKN050 PROB30 0123/0205 3SM TSRA SCT020 OVC040CB FM021000 30008KT P6SM SCT040
  Airport Weather Conditions for KLOT

 Current Weather at LOT
73° F
Overcast
Southwest winds at 10.4 mph
LOT NOAA Radar

Pressure: 29.77 in
Humidity: 95%
Wind: Southwest at 10.4 MPH (9 KT)
Dew Point: 71.6°F
Visibility: 7.00 mi


Airport Weather Forecast for KLOT

Translated METAR and TAF for KLOT
Translated METAR for KLOT (1339 UTC 01 September 2014)
found at http://aviationweather.gov/adds/metars/
 
METAR text: KLOT 011315Z AUTO 20013G17KT 5SM BR OVC009 23/22 A2976 RMK AO2 T02320222
Conditions at: KLOT (ROMEOVILLE/CHI , IL, US) observed 1315 UTC 01 September 2014
Temperature: 23.2°C (74°F)
Dewpoint: 22.2°C (72°F) [RH = 94%]
Pressure (altimeter): 29.76 inches Hg (1007.9 mb)
Winds: from the SSW (200 degrees) at 15 MPH (13 knots; 6.8 m/s)
gusting to 20 MPH (17 knots; 8.8 m/s)
Visibility: 5 miles (8 km)
Ceiling: 900 feet AGL
Clouds: overcast cloud deck at 900 feet AGL
Weather: BR  (mist)
Translated TAF for KLOT

There is no translated TAF available for this airport

Find All Airport Services Find A Hotel Find A Rental Car Find A Golf Course Find A Restaurant $100 Hamburger



FBO's on the Field
FBO Company Facility Photos Services Transportation Aviation Fuel Prices: Prices include tax
Catering Weather Repair Courtesy Rental Type 100LL JetA JetA+ MOGAS 8087
 
Lewis University Airport

This FBO has not yet been rated
FS:Phillips66
Last Updated: Aug-04
Login to update fuel prices
SS:
Contact Lewis University AirportMore FBO Information
 
Add another FBO Facility Photos Catering Weather Repair Courtesy Rental Type 100LL JetA JetA+ MOGAS 8087
Services Transportation Aviation Fuel Prices: Prices include tax


GlobalAir.com Airport Resource Center model-print
model-print
model-print
model-print